ADDS METAR Data INFO
IDs: Format: Raw Decoded Include TAF

Data at: 1536 UTC 25 Feb 2018

KHSD 251515Z AUTO 17008KT 10SM CLR 05/03 A3006 RMK A01
KHSD 251500Z AUTO 17005KT 10SM CLR 04/02 A3005 RMK A01
KHSD 251440Z AUTO 16004KT 10SM CLR 03/02 A3004 RMK A01
KHSD 251415Z AUTO 15004KT 9SM CLR 01/00 A3004 RMK A01
KHSD 251355Z AUTO 00000KT 8SM CLR 00/M00 A3004 RMK A01
KHSD 251335Z AUTO 15003KT 9SM CLR M01/M01 A3003 RMK A01
KHSD 251315Z AUTO 00000KT 8SM CLR M01/M02 A3003 RMK A01
KHSD 251300Z AUTO 00000KT 10SM CLR M01/M01 A3003 RMK A01
KHSD 251240Z AUTO 00000KT 10SM CLR M01/M01 A3002 RMK A01
KHSD 251220Z AUTO 03003KT 10SM CLR M01/M02 A3002 RMK A01
KHSD 251155Z AUTO 00000KT 10SM CLR M00/M00 A3000 RMK A01
KHSD 251135Z AUTO 00000KT 8SM CLR M02/M03 A2999 RMK A01
KHSD 251115Z AUTO 00000KT 10SM CLR 00/00 A2998 RMK A01
KHSD 251055Z AUTO 20004KT 10SM CLR M00/M01 A2998 RMK A01
KHSD 251040Z AUTO 16003KT 10SM CLR 01/00 A2998 RMK A01
KHSD 251020Z AUTO 00000KT 10SM CLR 01/00 A2997 RMK A01
KHSD 250955Z AUTO 00000KT 10SM CLR 01/M01 A2997 RMK A01
KHSD 250935Z AUTO 17003KT 10SM CLR 02/00 A2998 RMK A01
KHSD 250920Z AUTO 16003KT 10SM CLR 01/00 A2998 RMK A01
KHSD 250900Z AUTO 20003KT 10SM CLR 02/00 A2999 RMK A01
KHSD 250840Z AUTO 18004KT 10SM CLR 01/00 A2999 RMK A01
KHSD 250820Z AUTO 00000KT 10SM CLR 02/01 A2999 RMK A01
KHSD 250755Z AUTO 17006KT 10SM CLR 02/01 A2999 RMK A01
KHSD 250735Z AUTO 18008KT 10SM CLR 02/00 A2999 RMK A01
KHSD 250720Z AUTO 17007KT 10SM CLR 02/00 A2999 RMK A01
KHSD 250700Z AUTO 18007KT 10SM CLR 02/00 A2999 RMK A01
KHSD 250635Z AUTO 18007KT 10SM CLR 03/00 A3000 RMK A01
KHSD 250615Z AUTO 18007KT 10SM CLR 02/00 A3000 RMK A01
KHSD 250555Z AUTO 18007KT 10SM CLR 02/00 A3000 RMK A01
KHSD 250540Z AUTO 18008KT 10SM CLR 02/01 A2999 RMK A01
KHSD 250520Z AUTO 18008KT 10SM CLR 03/01 A3000 RMK A01
KHSD 250500Z AUTO 18007KT 10SM CLR 03/01 A3000 RMK A01
KHSD 250435Z AUTO 17007KT 10SM CLR 03/01 A2999 RMK A01
KHSD 250415Z AUTO 18008KT 10SM CLR 02/01 A2999 RMK A01
KHSD 250355Z AUTO 18006KT 10SM CLR 03/00 A2999 RMK A01
KHSD 250335Z AUTO 18004KT 10SM CLR 03/00 A2998 RMK A01
KHSD 250320Z AUTO 18005KT 10SM CLR 04/01 A2998 RMK A01
KHSD 250300Z AUTO 00000KT 10SM CLR 04/01 A2998 RMK A01
KHSD 250240Z AUTO 00000KT 10SM CLR 05/01 A2997 RMK A01
KHSD 250215Z AUTO 00000KT 10SM CLR 04/01 A2996 RMK A01
KHSD 250155Z AUTO 00000KT 10SM CLR 05/01 A2996 RMK A01
KHSD 250135Z AUTO 32003KT 10SM CLR 05/01 A2995 RMK A01
KHSD 250120Z AUTO 34006KT 10SM CLR 05/01 A2995 RMK A01
KHSD 250100Z AUTO 33008G14KT 10SM CLR 06/01 A2995 RMK A01
KHSD 250040Z AUTO 33009KT 10SM CLR 07/02 A2993 RMK A01
KHSD 250020Z AUTO 33011KT 10SM CLR 08/02 A2992 RMK A01
KHSD 242355Z AUTO 32009KT 10SM CLR 09/02 A2991 RMK A01
KHSD 242335Z AUTO 32011KT 10SM CLR 10/03 A2990 RMK A01
KHSD 242315Z AUTO 30010G17KT 10SM FEW034 10/02 A2989 RMK A01
KHSD 242255Z AUTO 30011G17KT 10SM SCT033 11/03 A2988 RMK A01
KHSD 242240Z AUTO 29014G20KT 10SM FEW033 10/03 A2987 RMK A01
KHSD 242220Z AUTO 29013KT 10SM FEW033 11/03 A2986 RMK A01
KHSD 242155Z AUTO 29016G21KT 10SM FEW030 10/03 A2985 RMK A01
KHSD 242135Z AUTO 30010G19KT 10SM SCT029 SCT036 10/04 A2983 RMK A01
KHSD 242115Z AUTO 31017KT 10SM BKN026 BKN037 11/04 A2983 RMK A01
KHSD 242055Z AUTO 29016G21KT 10SM SCT024 BKN029 10/05 A2983 RMK A01
KHSD 242035Z AUTO 29014KT 10SM BKN023 OVC029 11/06 A2981 RMK A01
KHSD 242015Z AUTO 30011KT 10SM OVC021 10/06 A2981 RMK A01
KHSD 241955Z AUTO 30008G13KT 10SM BKN017 OVC022 10/06 A2981 RMK A01
KHSD 241935Z AUTO 29005G13KT 10SM BKN014 10/06 A2982 RMK A01
KHSD 241915Z AUTO 28006KT 10SM BKN013 09/06 A2982 RMK A01
KHSD 241900Z AUTO 25004KT 10SM BKN013 08/05 A2983 RMK A01
KHSD 241835Z AUTO 29006KT 10SM BKN013 08/06 A2984 RMK A01
KHSD 241815Z AUTO 00000KT 10SM BKN012 06/05 A2986 RMK A01
KHSD 241755Z AUTO 00000KT 9SM BKN008 BKN011 06/06 A2987 RMK A01
KHSD 241740Z AUTO 00000KT 10SM BKN007 BKN011 05/05 A2987 RMK A01
KHSD 241720Z AUTO 00000KT 6SM BR BKN005 BKN027 04/04 A2986 RMK A01
KHSD 241655Z AUTO 29004G11KT 10SM BKN005 OVC027 03/03 A2985 RMK A01
KHSD 241635Z AUTO 31012KT 10SM BKN006 OVC027 03/03 A2987 RMK A01
KHSD 241615Z AUTO 31008KT 9SM BKN006 BKN013 OVC026 03/03 A2989 RMK A01
KHSD 241600Z AUTO 31007KT 8SM BKN006 BKN013 OVC043 02/02 A2989 RMK A01 P0001
KHSD 241535Z AUTO 30008KT 2 1/2SM BR BKN005 OVC030 02/02 A2989 RMK A01
KHSD 241515Z AUTO 30009KT 7SM BKN004 BKN022 OVC029 02/02 A2988 RMK A01
KHSD 241455Z AUTO 31005G10KT 5SM BR BKN004 OVC027 02/02 A2988 RMK A01
KHSD 241435Z AUTO 06006G11KT 1SM BR OVC002 02/02 A2985 RMK A01
KHSD 241415Z AUTO 35007KT 1SM BR OVC002 02/02 A2985 RMK A01
KHSD 241355Z AUTO 01008KT 3/4SM BR OVC002 02/02 A2984 RMK A01
KHSD 241335Z AUTO 02007G14KT 1/4SM FG OVC002 02/02 A2982 RMK A01
KHSD 241315Z AUTO 01008KT 1/2SM FG OVC002 02/02 A2984 RMK A01
KHSD 241255Z AUTO 36008KT 1/4SM FG OVC002 02/03 A2987 RMK A01
KHSD 241235Z AUTO 01006KT 1 1/2SM BR OVC003 03/03 A2989 RMK A01
KHSD 241215Z AUTO 01005KT 1/2SM FG OVC002 03/03 A2990 RMK A01
KHSD 241155Z AUTO 35007KT 3/4SM BR OVC002 03/03 A2990 RMK A01
KHSD 241135Z AUTO 35005KT 1/2SM FG OVC002 03/03 A2991 RMK A01
KHSD 241120Z AUTO 34004KT 1/2SM FG OVC002 03/03 A2992 RMK A01
KHSD 241055Z AUTO 34006KT 1/4SM FG OVC002 03/03 A2992 RMK A01
KHSD 241035Z AUTO 34003KT 1/4SM FG OVC002 03/03 A2992 RMK A01
KHSD 241015Z AUTO 00000KT 1/4SM FG OVC002 03/03 A2993 RMK A01
KHSD 241000Z AUTO 00000KT 1/4SM FG OVC002 03/03 A2992 RMK A01
KHSD 240935Z AUTO 00000KT 1/4SM FG OVC002 03/03 A2992 RMK A01
KHSD 240915Z AUTO 36004KT 1/4SM FG OVC002 03/03 A2993 RMK A01
KHSD 240855Z AUTO 03004KT 1SM BR OVC002 03/03 A2993 RMK A01
KHSD 240835Z AUTO 01004KT 3/4SM BR OVC002 03/03 A2995 RMK A01
KHSD 240815Z AUTO 00000KT 1/4SM FG OVC002 03/03 A2997 RMK A01
KHSD 240755Z AUTO 00000KT 1/2SM BR OVC002 03/04 A2997 RMK A01
KHSD 240735Z AUTO 01004KT 1/2SM BR OVC002 03/03 A2998 RMK A01
KHSD 240715Z AUTO 00000KT 3/4SM BR OVC002 03/04 A2999 RMK A01
KHSD 240655Z AUTO 34003KT 1/2SM FG OVC002 03/04 A2999 RMK A01
KHSD 240635Z AUTO 00000KT 1/2SM BR OVC002 04/04 A3000 RMK A01
KHSD 240615Z AUTO 34004KT 1/2SM FG OVC002 04/04 A3000 RMK A01
KHSD 240555Z AUTO 35004KT 1/2SM BR OVC002 04/04 A3001 RMK A01
KHSD 240535Z AUTO 00000KT 1SM BR OVC002 04/04 A3002 RMK A01
KHSD 240515Z AUTO 00000KT 2SM BR OVC002 04/04 A3003 RMK A01
KHSD 240455Z AUTO 36003KT 1 3/4SM BR OVC002 04/04 A3003 RMK A01
KHSD 240435Z AUTO 36005KT 1 1/4SM BR OVC002 03/04 A3003 RMK A01
KHSD 240415Z AUTO 33004KT 1SM BR OVC002 03/03 A3005 RMK A01
KHSD 240355Z AUTO 35004KT 1 1/2SM BR OVC002 03/03 A3005 RMK A01